Ginga Panther — 3EKQ6 — position and weather

sailwx.info

Track history (hours):
 
Tides and Currents Weather Stations Pressure Air Temp Water Temp Dewpoint Dewpoint Depression Visibility Wind Speed Wind Dir Waves Ship Positions

Ginga Panther

Last reported at 2017-Oct-05 09:38 UTC. Time now 2017-Nov-18 16:04 UTC.
Position N 35°28' E 014°29'.
Warning: this ship's position is 44 days out of date.

Length 159 m; draft 10.1 m.

Type: Tanker. MMSI: 372792000.

Date/timePositionNaut miles runAvg speedWind from/ knotsBaromVisibWave heightAir tempDewpointWater temp
2017-Oct-05 09:38N 35°28' E 014°29'212.8
2017-Oct-05 09:29N 35°28' E 014°26'912.9
2017-Oct-05 08:45N 35°30' E 014°15'813.1
2017-Oct-05 08:08N 35°35' E 014°08'213.4
2017-Oct-05 08:00N 35°36' E 014°06'3013.1
2017-Oct-05 05:41N 35°56' E 013°37'212.9
2017-Oct-05 05:30N 35°57' E 013°35'  
2017-Oct-02 05:29N 36°00' W 005°08'613.4
2017-Oct-02 05:00N 35°60' W 005°16'612.5
2017-Oct-02 04:30N 35°58' W 005°24'612.4
2017-Oct-02 04:00N 35°56' W 005°31'713.2
2017-Oct-02 03:29N 35°54' W 005°39'613.5
2017-Oct-02 03:00N 35°53' W 005°47'  
2017-Sep-27 23:57N 32°17' W 009°20'0 0.0
2017-Sep-27 21:54N 32°17' W 009°20'0 0.0
2017-Sep-27 21:27N 32°17' W 009°20'0 0.0
2017-Sep-27 21:00N 32°17' W 009°20'0 0.0
2017-Sep-27 19:45N 32°17' W 009°20'0 0.0
2017-Sep-27 19:30N 32°17' W 009°20'0 0.0
2017-Sep-27 17:45N 32°17' W 009°20'0 0.0
2017-Sep-26 15:27N 32°17' W 009°20'0 0.0
2017-Sep-26 15:00N 32°17' W 009°20'  
Track history (hours):
 
Tides and Currents Weather Stations Pressure Air Temp Water Temp Dewpoint Dewpoint Depression Visibility Wind Speed Wind Dir Waves Ship Positions

Ginga Panther

Last reported at 2017-Oct-05 09:38 UTC. Time now 2017-Nov-18 16:04 UTC.
Position N 35°28' E 014°29'.
Warning: this ship's position is 44 days out of date.

Length 159 m; draft 10.1 m.

Type: Tanker. MMSI: 372792000.

Date/timePositionNaut miles runAvg speedWind from/ knotsBaromVisibWave heightAir tempDewpointWater temp
2017-Oct-05 09:38N 35°28' E 014°29'212.8
2017-Oct-05 09:29N 35°28' E 014°26'912.9
2017-Oct-05 08:45N 35°30' E 014°15'813.1
2017-Oct-05 08:08N 35°35' E 014°08'213.4
2017-Oct-05 08:00N 35°36' E 014°06'3013.1
2017-Oct-05 05:41N 35°56' E 013°37'212.9
2017-Oct-05 05:30N 35°57' E 013°35'  
2017-Oct-02 05:29N 36°00' W 005°08'613.4
2017-Oct-02 05:00N 35°60' W 005°16'612.5
2017-Oct-02 04:30N 35°58' W 005°24'612.4
2017-Oct-02 04:00N 35°56' W 005°31'713.2
2017-Oct-02 03:29N 35°54' W 005°39'613.5
2017-Oct-02 03:00N 35°53' W 005°47'  
2017-Sep-27 23:57N 32°17' W 009°20'0 0.0
2017-Sep-27 21:54N 32°17' W 009°20'0 0.0
2017-Sep-27 21:27N 32°17' W 009°20'0 0.0
2017-Sep-27 21:00N 32°17' W 009°20'0 0.0
2017-Sep-27 19:45N 32°17' W 009°20'0 0.0
2017-Sep-27 19:30N 32°17' W 009°20'0 0.0
2017-Sep-27 17:45N 32°17' W 009°20'0 0.0
2017-Sep-26 15:27N 32°17' W 009°20'0 0.0
2017-Sep-26 15:00N 32°17' W 009°20'  

Dump ship's entire track history